Wilton, New York
Current Conditions -  °F | °C
As of 8:53 AM on Saturday 01 Nov 2014 (Local Time) from KGFL Reporting Station
Scattered Clouds Scattered Clouds  
Wind Chill:   Ceiling: Unl
Heat Index:   Visibility: 10mi
Dew Point: -1°   Wind: 5mph
Humidity: 70%   Direction: 60°ENE
Pressure: 30"   Gusts: NA
Location:  43.1979°N, 73.6839°W
Report Text: KGFL 011253Z AUTO 06004KT 10SM SCT065 04/M01 A3000 RMK AO2 SLP165 T00441006
Loading
Personal Weather Stations






























Interactive Weather Map
Tropical Storm Tracking
New forecast layout! Learn more

10-Day Weather Forecast

Advertisements
Track Severe Weather on mobile